Time;durP1;ratioP1;P1;durP2;ratioP2;P2;SDS_P1;SDS_P2;PMS_P1;PMS_P2;Temp;Humidity;BMP_temperature;BMP_pressure;BME280_temperature;BME280_humidity;BME280_pressure;Samples;Min_cycle;Max_cycle;Signal;HPM_P1;HPM_P2
2023/02/22 00:00:21;;;;;;;1999.90;999.90;;;4.30;99.90;;;;;;5024619;28;20457;-69
2023/02/22 00:02:49;;;;;;;1999.90;999.90;;;4.30;99.90;;;;;;5024303;28;20473;-69
2023/02/22 00:05:19;;;;;;;1999.90;999.90;;;4.40;99.90;;;;;;5024415;28;20931;-71
2023/02/22 00:07:47;;;;;;;1999.90;999.90;;;4.30;99.90;;;;;;5024982;28;20457;-72
2023/02/22 00:10:19;;;;;;;1999.90;999.90;;;4.20;99.90;;;;;;5023284;28;20464;-69
2023/02/22 00:12:47;;;;;;;1999.90;999.90;;;4.20;99.90;;;;;;5023185;28;20476;-71
2023/02/22 00:15:15;;;;;;;1999.90;999.90;;;4.20;99.90;;;;;;5025444;28;20924;-67
2023/02/22 00:17:42;;;;;;;1999.90;999.90;;;4.20;99.90;;;;;;5025796;28;20532;-68
2023/02/22 00:20:12;;;;;;;1999.90;999.90;;;4.20;99.90;;;;;;5024671;28;20451;-69
2023/02/22 00:22:41;;;;;;;1999.90;999.90;;;4.30;99.90;;;;;;5023406;28;20489;-68
2023/02/22 00:25:08;;;;;;;1999.90;999.90;;;4.20;99.90;;;;;;5023789;28;20461;-70
2023/02/22 00:27:35;;;;;;;1999.90;999.90;;;4.10;99.90;;;;;;5027054;28;20453;-67
2023/02/22 00:30:03;;;;;;;1999.90;999.90;;;4.10;99.90;;;;;;5030104;28;20456;-68
2023/02/22 00:32:30;;;;;;;1999.90;999.90;;;4.10;99.90;;;;;;5024138;28;20475;-69
2023/02/22 00:34:57;;;;;;;1999.90;999.90;;;4.00;99.90;;;;;;5028172;28;21175;-69
2023/02/22 00:37:24;;;;;;;1999.90;999.90;;;4.00;99.90;;;;;;5028792;28;20447;-68
2023/02/22 00:39:52;;;;;;;1999.90;999.90;;;4.00;99.90;;;;;;5043208;28;20452;-67
2023/02/22 00:42:19;;;;;;;1999.90;999.90;;;3.90;99.90;;;;;;5030180;28;20568;-68
2023/02/22 00:44:46;;;;;;;1999.90;999.90;;;3.90;99.90;;;;;;5023881;28;20558;-68
2023/02/22 00:47:13;;;;;;;1999.90;999.90;;;3.90;99.90;;;;;;5024006;28;20946;-67
2023/02/22 00:49:39;;;;;;;1999.90;999.90;;;3.90;99.90;;;;;;5035007;28;20821;-67
2023/02/22 00:52:07;;;;;;;1999.90;999.90;;;3.90;99.90;;;;;;5027805;28;20469;-68
2023/02/22 00:54:34;;;;;;;1999.90;999.90;;;4.00;99.90;;;;;;5027367;28;20898;-68
2023/02/22 00:57:03;;;;;;;1999.90;999.90;;;3.90;99.90;;;;;;5028274;28;20552;-67
2023/02/22 00:59:31;;;;;;;1999.90;999.90;;;4.00;99.90;;;;;;5040793;28;20822;-67
2023/02/22 01:01:58;;;;;;;1999.90;999.90;;;4.00;99.90;;;;;;5047809;28;20476;-68
2023/02/22 01:04:25;;;;;;;1999.90;999.90;;;3.90;99.90;;;;;;5046026;28;20455;-66
2023/02/22 01:06:52;;;;;;;1999.90;999.90;;;3.90;99.90;;;;;;5046084;28;20818;-68
2023/02/22 01:09:20;;;;;;;1999.90;999.90;;;3.90;99.90;;;;;;5038277;28;21079;-68
2023/02/22 01:11:47;;;;;;;1999.90;999.90;;;3.70;99.90;;;;;;5047227;28;20574;-67
2023/02/22 01:14:15;;;;;;;1999.90;999.90;;;3.70;99.90;;;;;;5046590;28;20464;-67
2023/02/22 01:16:43;;;;;;;1999.90;999.90;;;3.70;99.90;;;;;;5046996;28;20560;-68
2023/02/22 01:19:11;;;;;;;1999.90;999.90;;;3.70;99.90;;;;;;5037612;28;20589;-67
2023/02/22 01:21:39;;;;;;;1999.90;999.90;;;3.70;99.90;;;;;;5027629;28;20453;-67
2023/02/22 01:24:06;;;;;;;1999.90;999.90;;;3.70;99.90;;;;;;5026017;28;20531;-67
2023/02/22 01:26:33;;;;;;;1999.90;999.90;;;3.70;99.90;;;;;;5027471;28;20452;-67
2023/02/22 01:29:00;;;;;;;1999.90;999.90;;;3.70;99.90;;;;;;5038933;28;20454;-66
2023/02/22 01:31:28;;;;;;;1999.90;999.90;;;3.60;99.90;;;;;;5047500;28;20804;-68
2023/02/22 01:33:55;;;;;;;1999.90;999.90;;;3.60;99.90;;;;;;5045542;28;20945;-68
2023/02/22 01:36:22;;;;;;;1999.90;999.90;;;3.70;99.90;;;;;;5047463;28;20519;-67
2023/02/22 01:38:48;;;;;;;1999.90;999.90;;;3.80;99.90;;;;;;5037095;28;20958;-68
2023/02/22 01:41:17;;;;;;;1999.90;999.90;;;3.80;99.90;;;;;;5027589;28;20459;-68
2023/02/22 01:43:44;;;;;;;1999.90;999.90;;;3.80;99.90;;;;;;5033478;28;20503;-68
2023/02/22 01:46:21;;;;;;;1999.90;999.90;;;3.70;99.90;;;;;;5029099;28;20537;-71
2023/02/22 01:48:53;;;;;;;1999.90;999.90;;;3.70;99.90;;;;;;5037210;28;20448;-68
2023/02/22 01:51:24;;;;;;;1999.90;999.90;;;3.60;99.90;;;;;;5035755;28;20544;-68
2023/02/22 01:53:54;;;;;;;1999.90;999.90;;;3.60;99.90;;;;;;5033242;28;20467;-68
2023/02/22 01:56:22;;;;;;;1999.90;999.90;;;3.60;99.90;;;;;;5037173;28;20471;-68
2023/02/22 01:58:53;;;;;;;1999.90;999.90;;;3.70;99.90;;;;;;5037425;28;20443;-70
2023/02/22 02:01:23;;;;;;;1999.90;999.90;;;3.70;99.90;;;;;;5038284;28;20447;-69
2023/02/22 02:03:56;;;;;;;1999.90;999.90;;;3.70;99.90;;;;;;5026715;28;20475;-68
2023/02/22 02:06:24;;;;;;;1999.90;999.90;;;3.70;99.90;;;;;;5028606;28;20468;-69
2023/02/22 02:08:58;;;;;;;1999.90;999.90;;;3.70;99.90;;;;;;5038610;28;20441;-69
2023/02/22 02:11:26;;;;;;;1999.90;999.90;;;3.70;99.90;;;;;;5040471;28;20799;-67
2023/02/22 02:13:55;;;;;;;1999.90;999.90;;;3.70;99.90;;;;;;5033417;28;20451;-68
2023/02/22 02:16:24;;;;;;;1999.90;999.90;;;3.70;99.90;;;;;;5036331;28;21226;-67
2023/02/22 02:18:52;;;;;;;1999.90;999.90;;;3.70;99.90;;;;;;5037454;28;20816;-70
2023/02/22 02:21:48;;;;;;;1999.90;999.90;;;3.70;99.90;;;;;;5027387;28;20519;-68
2023/02/22 02:24:58;;;;;;;1999.90;999.90;;;3.60;99.90;;;;;;5033914;28;20456;-67
2023/02/22 02:27:29;;;;;;;1999.90;999.90;;;3.70;99.90;;;;;;5041457;28;20452;-68
2023/02/22 02:30:35;;;;;;;1999.90;999.90;;;3.70;99.90;;;;;;5041350;28;20447;-68
2023/02/22 02:33:06;;;;;;;1999.90;999.90;;;3.70;99.90;;;;;;5031255;28;20461;-69
2023/02/22 02:35:47;;;;;;;1999.90;999.90;;;3.70;99.90;;;;;;5032545;28;20500;-67
2023/02/22 02:38:22;;;;;;;1999.90;999.90;;;3.60;99.90;;;;;;5037372;28;20440;-69
2023/02/22 02:40:55;;;;;;;1999.90;999.90;;;3.60;99.90;;;;;;5042363;28;20467;-68
2023/02/22 02:43:29;;;;;;;1999.90;999.90;;;3.70;99.90;;;;;;5032354;28;20468;-70
2023/02/22 02:46:02;;;;;;;1999.90;999.90;;;3.70;99.90;;;;;;5037550;28;20836;-68
2023/02/22 02:48:34;;;;;;;1999.90;999.90;;;3.70;99.90;;;;;;5040893;28;20455;-69
2023/02/22 02:51:05;;;;;;;1999.90;999.90;;;3.70;99.90;;;;;;5037727;28;20448;-69
2023/02/22 02:53:35;;;;;;;1999.90;999.90;;;3.80;99.90;;;;;;5033509;28;20485;-67
2023/02/22 02:56:02;;;;;;;1999.90;999.90;;;3.80;99.90;;;;;;5038216;28;20477;-67
2023/02/22 02:58:29;;;;;;;1999.90;999.90;;;3.90;99.90;;;;;;5036603;28;20445;-69
2023/02/22 03:00:59;;;;;;;1999.90;999.90;;;3.90;99.90;;;;;;5039802;28;20905;-67
2023/02/22 03:03:52;;;;;;;1999.90;999.90;;;3.90;99.90;;;;;;5034699;28;20850;-69
2023/02/22 03:06:52;;;;;;;1999.90;999.90;;;3.90;99.90;;;;;;5025231;28;20445;-69
2023/02/22 03:09:33;;;;;;;1999.90;999.90;;;3.90;99.90;;;;;;5039905;28;20441;-68
2023/02/22 03:12:07;;;;;;;1999.90;999.90;;;3.90;99.90;;;;;;5042240;28;20471;-68
2023/02/22 03:14:41;;;;;;;1999.90;999.90;;;3.90;99.90;;;;;;5035587;28;20440;-69
2023/02/22 03:17:17;;;;;;;1999.90;999.90;;;3.90;99.90;;;;;;5038458;28;20479;-68
2023/02/22 03:19:50;;;;;;;1999.90;999.90;;;3.90;99.90;;;;;;5042154;28;20501;-67
2023/02/22 03:22:23;;;;;;;1999.90;999.90;;;3.90;99.90;;;;;;5039338;28;20472;-71
2023/02/22 03:24:57;;;;;;;1999.90;999.90;;;3.90;99.90;;;;;;5040004;28;20872;-67
2023/02/22 03:27:28;;;;;;;1999.90;999.90;;;3.90;99.90;;;;;;5030642;28;20448;-67
2023/02/22 03:29:59;;;;;;;1999.90;999.90;;;3.80;99.90;;;;;;5040151;28;20448;-67
2023/02/22 03:32:30;;;;;;;1999.90;999.90;;;3.80;99.90;;;;;;5035712;28;20504;-68
2023/02/22 03:35:05;;;;;;;1999.90;999.90;;;3.70;99.90;;;;;;5039313;28;20485;-67
2023/02/22 03:37:36;;;;;;;1999.90;999.90;;;3.70;99.90;;;;;;5032781;28;20475;-69
2023/02/22 03:40:12;;;;;;;1999.90;999.90;;;3.70;99.90;;;;;;5031830;28;20544;-68
2023/02/22 03:42:42;;;;;;;1999.90;999.90;;;3.80;99.90;;;;;;5035862;28;20478;-68
2023/02/22 03:45:11;;;;;;;1999.90;999.90;;;3.80;99.90;;;;;;5041574;28;20947;-68
2023/02/22 03:47:41;;;;;;;1999.90;999.90;;;3.90;99.90;;;;;;5036679;28;20535;-67
2023/02/22 03:50:14;;;;;;;1999.90;999.90;;;3.90;99.90;;;;;;5035846;28;20451;-67
2023/02/22 03:52:42;;;;;;;1999.90;999.90;;;3.90;99.90;;;;;;5039241;28;20476;-70
2023/02/22 03:55:10;;;;;;;1999.90;999.90;;;4.00;99.90;;;;;;5037822;28;20487;-68
2023/02/22 03:57:40;;;;;;;1999.90;999.90;;;4.00;99.90;;;;;;5032726;28;21048;-69
2023/02/22 04:00:10;;;;;;;1999.90;999.90;;;4.00;99.90;;;;;;5034607;28;20460;-69
2023/02/22 04:02:37;;;;;;;1999.90;999.90;;;4.00;99.90;;;;;;5035362;28;20966;-68
2023/02/22 04:05:04;;;;;;;1999.90;999.90;;;3.90;99.90;;;;;;5034602;28;20963;-67
2023/02/22 04:07:32;;;;;;;1999.90;999.90;;;3.90;99.90;;;;;;5037644;28;20836;-68
2023/02/22 04:10:01;;;;;;;1999.90;999.90;;;3.80;99.90;;;;;;5037755;28;20444;-69
2023/02/22 04:12:28;;;;;;;1999.90;999.90;;;3.80;99.90;;;;;;5034793;28;20479;-67
2023/02/22 04:14:55;;;;;;;1999.90;999.90;;;3.80;99.90;;;;;;5036323;28;20445;-67
2023/02/22 04:17:21;;;;;;;1999.90;999.90;;;3.70;99.90;;;;;;5037433;28;20437;-68
2023/02/22 04:19:48;;;;;;;1999.90;999.90;;;3.70;99.90;;;;;;5034119;28;20457;-68
2023/02/22 04:22:15;;;;;;;1999.90;999.90;;;3.70;99.90;;;;;;5034912;28;20473;-69
2023/02/22 04:24:44;;;;;;;1999.90;999.90;;;3.80;99.90;;;;;;5038779;28;20452;-67
2023/02/22 04:27:11;;;;;;;1999.90;999.90;;;3.80;99.90;;;;;;5041954;28;21014;-67
2023/02/22 04:29:37;;;;;;;1999.90;999.90;;;3.90;99.90;;;;;;5036842;28;21005;-67
2023/02/22 04:32:05;;;;;;;1999.90;999.90;;;3.90;99.90;;;;;;5037380;28;21013;-69
2023/02/22 04:34:31;;;;;;;1999.90;999.90;;;3.80;99.90;;;;;;5038583;28;20448;-68
2023/02/22 04:36:58;;;;;;;1999.90;999.90;;;3.80;99.90;;;;;;5038275;28;20490;-68
2023/02/22 04:39:25;;;;;;;1999.90;999.90;;;3.80;99.90;;;;;;5034612;28;20441;-67
2023/02/22 04:41:53;;;;;;;1999.90;999.90;;;3.90;99.90;;;;;;5035807;28;20478;-69
2023/02/22 04:44:20;;;;;;;1999.90;999.90;;;3.80;99.90;;;;;;5035126;28;20444;-68
2023/02/22 04:46:46;;;;;;;1999.90;999.90;;;3.70;99.90;;;;;;5041480;28;20448;-67
2023/02/22 04:49:14;;;;;;;1999.90;999.90;;;3.70;99.90;;;;;;5027868;28;21039;-68
2023/02/22 04:51:41;;;;;;;1999.90;999.90;;;3.70;99.90;;;;;;5028156;28;20464;-69
2023/02/22 04:54:08;;;;;;;1999.90;999.90;;;3.70;99.90;;;;;;5040704;28;20460;-69
2023/02/22 04:56:35;;;;;;;1999.90;999.90;;;3.70;99.90;;;;;;5038163;28;20850;-67
2023/02/22 04:59:03;;;;;;;1999.90;999.90;;;3.70;99.90;;;;;;5039540;28;21155;-68
2023/02/22 05:01:32;;;;;;;1999.90;999.90;;;3.70;99.90;;;;;;5038844;28;21211;-68
2023/02/22 05:03:59;;;;;;;1999.90;999.90;;;3.70;99.90;;;;;;5035417;28;20946;-68
2023/02/22 05:06:26;;;;;;;1999.90;999.90;;;3.60;99.90;;;;;;5039417;28;20969;-69
2023/02/22 05:08:53;;;;;;;1999.90;999.90;;;3.70;99.90;;;;;;5035108;28;20902;-69
2023/02/22 05:11:20;;;;;;;1999.90;999.90;;;3.70;99.90;;;;;;5039638;28;20916;-68
2023/02/22 05:13:47;;;;;;;1999.90;999.90;;;3.70;99.90;;;;;;5040479;28;20476;-68
2023/02/22 05:16:16;;;;;;;1999.90;999.90;;;3.70;99.90;;;;;;5041296;28;20482;-68
2023/02/22 05:18:42;;;;;;;1999.90;999.90;;;3.60;99.90;;;;;;5037212;28;20847;-69
2023/02/22 05:21:10;;;;;;;1999.90;999.90;;;3.60;99.90;;;;;;5035655;28;20970;-68
2023/02/22 05:23:37;;;;;;;1999.90;999.90;;;3.50;99.90;;;;;;5031600;28;20468;-69
2023/02/22 05:26:05;;;;;;;1999.90;999.90;;;3.40;99.90;;;;;;5036630;28;20445;-68
2023/02/22 05:28:32;;;;;;;1999.90;999.90;;;3.30;99.90;;;;;;5033632;28;20476;-68
2023/02/22 05:30:59;;;;;;;1999.90;999.90;;;3.30;99.90;;;;;;5036814;28;20451;-70
2023/02/22 05:33:27;;;;;;;1999.90;999.90;;;3.30;99.90;;;;;;5037108;28;21009;-69
2023/02/22 05:35:54;;;;;;;1999.90;999.90;;;3.20;99.90;;;;;;5037794;28;20482;-67
2023/02/22 05:38:22;;;;;;;1999.90;999.90;;;3.20;99.90;;;;;;5032128;28;20457;-69
2023/02/22 05:40:49;;;;;;;1999.90;999.90;;;3.10;99.90;;;;;;5036306;28;20988;-67
2023/02/22 05:43:16;;;;;;;1999.90;999.90;;;3.10;99.90;;;;;;5032652;28;20476;-68
2023/02/22 05:45:43;;;;;;;1999.90;999.90;;;3.20;99.90;;;;;;5036991;28;20444;-67
2023/02/22 05:48:11;;;;;;;1999.90;999.90;;;3.10;99.90;;;;;;5037104;28;20460;-69
2023/02/22 05:50:40;;;;;;;1999.90;999.90;;;3.10;99.90;;;;;;5034057;28;20456;-67
2023/02/22 05:53:07;;;;;;;1999.90;999.90;;;3.20;99.90;;;;;;5036430;28;21062;-67
2023/02/22 05:55:33;;;;;;;1999.90;999.90;;;3.30;99.90;;;;;;5037812;28;20909;-69
2023/02/22 05:58:00;;;;;;;1999.90;999.90;;;3.30;99.90;;;;;;5038384;28;20458;-68
2023/02/22 06:00:29;;;;;;;1999.90;999.90;;;3.40;99.90;;;;;;5036793;28;20444;-67
2023/02/22 06:02:58;;;;;;;1999.90;999.90;;;3.50;99.90;;;;;;5032048;28;20472;-71
2023/02/22 06:05:26;;;;;;;1999.90;999.90;;;3.50;99.90;;;;;;5040282;28;20453;-68
2023/02/22 06:07:54;;;;;;;1999.90;999.90;;;3.50;99.90;;;;;;5037512;28;20852;-68
2023/02/22 06:10:21;;;;;;;1999.90;999.90;;;3.50;99.90;;;;;;5032934;28;20846;-68
2023/02/22 06:12:49;;;;;;;1999.90;999.90;;;3.50;99.90;;;;;;5035263;28;20469;-68
2023/02/22 06:15:17;;;;;;;1999.90;999.90;;;3.50;99.90;;;;;;5035260;28;20454;-67
2023/02/22 06:17:44;;;;;;;1999.90;999.90;;;3.50;99.90;;;;;;5029683;28;20754;-67
2023/02/22 06:20:12;;;;;;;1999.90;999.90;;;3.50;99.90;;;;;;5032311;28;20437;-69
2023/02/22 06:22:40;;;;;;;1999.90;999.90;;;3.50;99.90;;;;;;5040916;28;20472;-68
2023/02/22 06:25:12;;;;;;;1999.90;999.90;;;3.40;99.90;;;;;;5034777;28;20575;-68
2023/02/22 06:27:39;;;;;;;1999.90;999.90;;;3.40;99.90;;;;;;5038546;28;20467;-68
2023/02/22 06:30:07;;;;;;;1999.90;999.90;;;3.40;99.90;;;;;;5041751;28;20987;-68
2023/02/22 06:32:34;;;;;;;1999.90;999.90;;;3.40;99.90;;;;;;5037326;28;20507;-68
2023/02/22 06:35:01;;;;;;;1999.90;999.90;;;3.50;99.90;;;;;;5042539;28;20463;-67
2023/02/22 06:37:27;;;;;;;1999.90;999.90;;;3.40;99.90;;;;;;5039883;28;20491;-69
2023/02/22 06:39:54;;;;;;;1999.90;999.90;;;3.50;99.90;;;;;;5043914;28;21110;-67
2023/02/22 06:42:22;;;;;;;1999.90;999.90;;;3.50;99.90;;;;;;5038336;28;20835;-68
2023/02/22 06:44:49;;;;;;;1999.90;999.90;;;3.60;99.90;;;;;;5038350;28;20455;-68
2023/02/22 06:47:16;;;;;;;1999.90;999.90;;;3.80;99.90;;;;;;5032097;28;20809;-69
2023/02/22 06:49:43;;;;;;;1999.90;999.90;;;3.90;99.90;;;;;;5040969;28;20463;-68
2023/02/22 06:52:10;;;;;;;1999.90;999.90;;;3.90;99.90;;;;;;5039049;28;20472;-68
2023/02/22 06:54:38;;;;;;;1999.90;999.90;;;4.00;99.90;;;;;;5038555;28;20452;-67
2023/02/22 06:57:05;;;;;;;1999.90;999.90;;;4.00;99.90;;;;;;5041337;28;20483;-67
2023/02/22 06:59:33;;;;;;;1999.90;999.90;;;4.10;99.90;;;;;;5041761;28;20803;-68
2023/02/22 07:02:00;;;;;;;1999.90;999.90;;;4.30;99.90;;;;;;5045791;28;20833;-68
2023/02/22 07:04:27;;;;;;;1999.90;999.90;;;4.30;99.90;;;;;;5035669;28;20457;-67
2023/02/22 07:06:53;;;;;;;1999.90;999.90;;;4.40;99.90;;;;;;5041243;28;20437;-68
2023/02/22 07:09:20;;;;;;;1999.90;999.90;;;4.50;99.90;;;;;;5039729;28;20449;-67
2023/02/22 07:11:47;;;;;;;1999.90;999.90;;;4.60;99.90;;;;;;5038404;28;21223;-67
2023/02/22 07:14:16;;;;;;;1999.90;999.90;;;4.60;99.90;;;;;;5038386;28;20461;-69
2023/02/22 07:16:44;;;;;;;1999.90;999.90;;;4.70;99.90;;;;;;5039908;28;20522;-67
2023/02/22 07:19:11;;;;;;;1999.90;999.90;;;4.80;99.90;;;;;;5039319;28;20448;-67
2023/02/22 07:21:38;;;;;;;1999.90;999.90;;;5.00;99.90;;;;;;5040512;28;20444;-68
2023/02/22 07:24:04;;;;;;;1999.90;999.90;;;5.10;99.90;;;;;;5038648;28;20456;-67
2023/02/22 07:26:37;;;;;;;1999.90;999.90;;;5.30;99.90;;;;;;5041049;28;20447;-67
2023/02/22 07:29:04;;;;;;;1999.90;999.90;;;5.40;99.90;;;;;;5034543;28;20449;-68
2023/02/22 07:31:35;;;;;;;1999.90;999.90;;;5.50;99.90;;;;;;5041459;28;20451;-68
2023/02/22 07:34:03;;;;;;;1999.90;999.90;;;5.50;99.90;;;;;;5033506;28;21082;-66
2023/02/22 07:36:30;;;;;;;1999.90;999.90;;;5.60;99.90;;;;;;5040835;28;20484;-68
2023/02/22 07:38:57;;;;;;;1999.90;999.90;;;5.70;99.90;;;;;;5039725;28;20465;-69
2023/02/22 07:41:23;;;;;;;1999.90;999.90;;;5.80;99.90;;;;;;5042554;28;20946;-68
2023/02/22 07:43:50;;;;;;;1999.90;999.90;;;5.90;99.90;;;;;;5035757;28;21018;-67
2023/02/22 07:46:17;;;;;;;1999.90;999.90;;;5.90;99.90;;;;;;5037030;28;20445;-67
2023/02/22 07:48:44;;;;;;;1999.90;999.90;;;5.90;99.90;;;;;;5040260;28;20492;-67
2023/02/22 07:51:15;;;;;;;1999.90;999.90;;;6.00;99.90;;;;;;5037665;28;20456;-69
2023/02/22 07:53:42;;;;;;;1999.90;999.90;;;6.00;99.90;;;;;;5039417;28;20469;-68
2023/02/22 07:56:09;;;;;;;1999.90;999.90;;;6.10;99.90;;;;;;5038446;28;20456;-66
2023/02/22 07:58:35;;;;;;;1999.90;999.90;;;6.20;99.90;;;;;;5037413;28;20521;-66
2023/02/22 08:01:02;;;;;;;1999.90;999.90;;;6.30;99.90;;;;;;5036115;28;20515;-68
2023/02/22 08:03:33;;;;;;;1999.90;999.90;;;6.40;99.90;;;;;;5039946;28;20471;-68
2023/02/22 08:06:01;;;;;;;1999.90;999.90;;;6.60;99.90;;;;;;5039663;28;20943;-69
2023/02/22 08:08:30;;;;;;;1999.90;999.90;;;6.70;99.90;;;;;;5039156;28;20440;-66
2023/02/22 08:10:57;;;;;;;1999.90;999.90;;;6.80;99.90;;;;;;5036750;28;20519;-65
2023/02/22 08:13:24;;;;;;;1999.90;999.90;;;6.80;99.90;;;;;;5032471;28;20461;-68
2023/02/22 08:15:52;;;;;;;1999.90;999.90;;;7.00;99.90;;;;;;5037615;28;20479;-67
2023/02/22 08:18:19;;;;;;;1999.90;999.90;;;7.10;99.90;;;;;;5041441;28;20833;-68
2023/02/22 08:20:47;;;;;;;1999.90;999.90;;;7.20;99.90;;;;;;5039151;28;20445;-70
2023/02/22 08:23:16;;;;;;;1999.90;999.90;;;7.40;99.90;;;;;;5040393;28;20472;-70
2023/02/22 08:25:44;;;;;;;1999.90;999.90;;;7.50;99.90;;;;;;5042472;28;20993;-69
2023/02/22 08:28:13;;;;;;;1999.90;999.90;;;7.70;99.90;;;;;;5036641;28;20498;-68
2023/02/22 08:30:42;;;;;;;1999.90;999.90;;;7.80;99.90;;;;;;5034636;28;20483;-67
2023/02/22 08:33:09;;;;;;;1999.90;999.90;;;8.10;99.90;;;;;;5035470;28;20468;-69
2023/02/22 08:35:37;;;;;;;1999.90;999.90;;;8.40;99.90;;;;;;5037527;28;20457;-68
2023/02/22 08:38:05;;;;;;;1999.90;999.90;;;8.60;99.90;;;;;;5038722;28;20486;-68
2023/02/22 08:40:34;;;;;;;1999.90;999.90;;;8.80;99.90;;;;;;5040675;28;20441;-68
2023/02/22 08:43:03;;;;;;;1999.90;999.90;;;9.10;99.90;;;;;;5037736;28;21016;-70
2023/02/22 08:45:30;;;;;;;1999.90;999.90;;;9.40;99.90;;;;;;5037995;28;20451;-69
2023/02/22 08:47:58;;;;;;;1999.90;999.90;;;9.60;99.90;;;;;;5028757;28;20445;-70
2023/02/22 08:50:27;;;;;;;1999.90;999.90;;;9.80;99.90;;;;;;5029558;28;20965;-68
2023/02/22 08:52:57;;;;;;;1999.90;999.90;;;9.90;99.90;;;;;;5027775;28;20491;-71
2023/02/22 08:55:30;;;;;;;1999.90;999.90;;;10.10;99.90;;;;;;5036591;28;20451;-68
2023/02/22 08:57:58;;;;;;;1999.90;999.90;;;10.20;99.90;;;;;;5041790;28;21171;-68
2023/02/22 09:00:28;;;;;;;1999.90;999.90;;;10.20;99.90;;;;;;5037833;28;20472;-69
2023/02/22 09:02:55;;;;;;;1999.90;999.90;;;10.30;99.90;;;;;;5032842;28;20508;-69
2023/02/22 09:05:22;;;;;;;1999.90;999.90;;;10.40;99.90;;;;;;5038423;28;20449;-68
2023/02/22 09:07:49;;;;;;;1999.90;999.90;;;10.40;99.90;;;;;;5033432;28;20457;-70
2023/02/22 09:10:19;;;;;;;1999.90;999.90;;;10.60;99.90;;;;;;5039495;28;20444;-68
2023/02/22 09:12:45;;;;;;;1999.90;999.90;;;11.00;99.90;;;;;;5036348;28;20526;-69
2023/02/22 09:15:15;;;;;;;1999.90;999.90;;;11.20;99.90;;;;;;5037200;28;20444;-69
2023/02/22 09:17:43;;;;;;;1999.90;999.90;;;11.40;99.90;;;;;;5031669;28;20504;-67
2023/02/22 09:20:11;;;;;;;1999.90;999.90;;;11.70;99.90;;;;;;5033321;28;20883;-67
2023/02/22 09:22:38;;;;;;;1999.90;999.90;;;11.90;99.90;;;;;;5033943;28;20472;-67
2023/02/22 09:25:07;;;;;;;1999.90;999.90;;;11.90;99.90;;;;;;5036346;28;20464;-69
2023/02/22 09:27:34;;;;;;;1999.90;999.90;;;11.70;99.90;;;;;;5039178;28;20445;-68
2023/02/22 09:30:02;;;;;;;1999.90;999.90;;;11.60;99.90;;;;;;5034224;28;20543;-68
2023/02/22 09:32:29;;;;;;;1999.90;999.90;;;11.60;99.90;;;;;;5029836;28;20469;-67
2023/02/22 09:34:57;;;;;;;1999.90;999.90;;;11.60;99.90;;;;;;5035060;28;20966;-71
2023/02/22 09:37:24;;;;;;;1999.90;999.90;;;11.90;99.90;;;;;;5032476;28;20487;-69
2023/02/22 09:39:51;;;;;;;1999.90;999.90;;;12.20;99.90;;;;;;5030777;28;20451;-69
2023/02/22 09:42:27;;;;;;;1999.90;999.90;;;12.50;99.90;;;;;;5032122;28;20515;-69
2023/02/22 09:45:02;;;;;;;1999.90;999.90;;;12.70;99.90;;;;;;5036919;28;20510;-68
2023/02/22 09:47:38;;;;;;;1999.90;999.90;;;12.90;99.90;;;;;;5038519;28;20542;-68
2023/02/22 09:50:14;;;;;;;1999.90;999.90;;;13.20;99.90;;;;;;5040670;28;20961;-65
2023/02/22 09:52:52;;;;;;;1999.90;999.90;;;13.30;99.90;;;;;;5037981;28;20922;-68
2023/02/22 09:55:29;;;;;;;1999.90;999.90;;;13.80;99.90;;;;;;5035392;28;20459;-68
2023/02/22 09:58:00;;;;;;;1999.90;999.90;;;14.20;99.90;;;;;;5040713;28;20541;-70
2023/02/22 10:00:32;;;;;;;1999.90;999.90;;;14.50;99.90;;;;;;5039216;28;20536;-69
2023/02/22 10:03:12;;;;;;;1999.90;999.90;;;14.50;99.90;;;;;;5038334;28;20469;-68
2023/02/22 10:05:43;;;;;;;1999.90;999.90;;;14.90;99.90;;;;;;5030590;28;20449;-70
2023/02/22 10:08:12;;;;;;;1999.90;999.90;;;15.40;99.90;;;;;;5043148;28;20447;-68
2023/02/22 10:10:44;;;;;;;1999.90;999.90;;;15.90;99.90;;;;;;5037720;28;20962;-68
2023/02/22 10:13:22;;;;;;;1999.90;999.90;;;16.20;99.90;;;;;;5030731;28;20464;-69
2023/02/22 10:15:58;;;;;;;1999.90;999.90;;;16.70;99.90;;;;;;5032136;28;20455;-69
2023/02/22 10:19:01;;;;;;;1999.90;999.90;;;17.10;99.90;;;;;;5032367;28;20538;-69
2023/02/22 10:21:41;;;;;;;1999.90;999.90;;;16.60;99.90;;;;;;5009951;28;20487;-68
2023/02/22 10:24:16;;;;;;;1999.90;999.90;;;16.70;99.90;;;;;;5040788;28;20449;-69
2023/02/22 10:26:45;;;;;;;1999.90;999.90;;;16.80;99.90;;;;;;5045264;28;20443;-68
2023/02/22 10:29:20;;;;;;;1999.90;999.90;;;16.70;99.50;;;;;;5031703;28;20449;-68
2023/02/22 10:31:52;;;;;;;1999.90;999.90;;;17.10;99.90;;;;;;5043881;28;20486;-67
2023/02/22 10:34:24;;;;;;;1999.90;999.90;;;17.10;99.30;;;;;;5038294;28;20453;-69
2023/02/22 10:36:58;;;;;;;1999.90;999.90;;;16.70;99.80;;;;;;5031440;28;20954;-70
2023/02/22 10:39:30;;;;;;;1999.90;999.90;;;16.50;99.90;;;;;;5044493;28;20454;-69
2023/02/22 10:42:04;;;;;;;1999.90;999.90;;;16.50;99.90;;;;;;5040984;28;20475;-68
2023/02/22 10:44:32;;;;;;;1999.90;999.90;;;16.30;99.90;;;;;;5042078;28;20834;-70
2023/02/22 10:47:01;;;;;;;1999.90;999.90;;;15.70;99.90;;;;;;5039008;28;20834;-70
2023/02/22 10:49:34;;;;;;;1999.90;999.90;;;15.20;99.90;;;;;;5038833;28;20803;-69
2023/02/22 10:52:10;;;;;;;1999.90;999.90;;;15.20;99.90;;;;;;5038754;28;20475;-66
2023/02/22 10:54:41;;;;;;;1999.90;999.90;;;15.30;99.90;;;;;;5039920;28;20446;-70
2023/02/22 10:57:08;;;;;;;1999.90;999.90;;;15.50;99.90;;;;;;5036625;28;20452;-70
2023/02/22 10:59:38;;;;;;;1999.90;999.90;;;16.00;99.90;;;;;;5042464;28;20452;-68
2023/02/22 11:02:17;;;;;;;1999.90;999.90;;;16.40;99.90;;;;;;5039285;28;20468;-67
2023/02/22 11:04:46;;;;;;;1999.90;999.90;;;16.70;99.90;;;;;;5042999;28;20455;-70
2023/02/22 11:07:22;;;;;;;1999.90;999.90;;;17.10;99.90;;;;;;5038420;28;20459;-68
2023/02/22 11:09:52;;;;;;;1999.90;999.90;;;17.80;99.40;;;;;;5043444;28;20468;-68
2023/02/22 11:12:21;;;;;;;1999.90;999.90;;;18.00;98.30;;;;;;5038364;28;20472;-68
2023/02/22 11:14:48;;;;;;;1999.90;999.90;;;18.40;97.70;;;;;;5037094;28;20448;-71
2023/02/22 11:17:24;;;;;;;1999.90;999.90;;;18.80;97.50;;;;;;5043379;28;20445;-67
2023/02/22 11:19:51;;;;;;;1999.90;999.90;;;19.20;97.10;;;;;;5037554;28;20442;-68
2023/02/22 11:22:26;;;;;;;1999.90;999.90;;;18.90;95.40;;;;;;5039375;28;20475;-69
2023/02/22 11:24:56;;;;;;;1999.90;999.90;;;19.00;96.70;;;;;;5038912;28;20819;-68
2023/02/22 11:27:30;;;;;;;1999.90;999.90;;;19.70;95.70;;;;;;5031350;28;20493;-68
2023/02/22 11:30:21;;;;;;;1999.90;999.90;;;20.30;95.10;;;;;;5042612;28;20456;-67
2023/02/22 11:32:50;;;;;;;1999.90;999.90;;;19.70;93.90;;;;;;5036570;28;20479;-68
2023/02/22 11:35:34;;;;;;;1999.90;999.90;;;19.70;95.30;;;;;;5039009;28;20977;-69
2023/02/22 11:38:16;;;;;;;1999.90;999.90;;;20.00;94.20;;;;;;5035930;28;20488;-69
2023/02/22 11:40:43;;;;;;;1999.90;999.90;;;20.80;93.30;;;;;;5042961;28;20449;-68
2023/02/22 11:43:15;;;;;;;1999.90;999.90;;;20.60;92.20;;;;;;5037668;28;20870;-67
2023/02/22 11:46:01;;;;;;;1999.90;999.90;;;20.70;92.80;;;;;;5040770;28;20459;-67
2023/02/22 11:48:33;;;;;;;1999.90;999.90;;;20.50;93.10;;;;;;5041980;28;20440;-68
2023/02/22 11:51:12;;;;;;;1999.90;999.90;;;20.30;91.90;;;;;;5039033;28;20453;-68
2023/02/22 11:53:53;;;;;;;1999.90;999.90;;;19.70;93.00;;;;;;5037632;28;20470;-67
2023/02/22 11:56:25;;;;;;;1999.90;999.90;;;19.80;92.70;;;;;;5040091;28;20447;-70
2023/02/22 11:59:02;;;;;;;1999.90;999.90;;;19.80;92.70;;;;;;5041541;28;20477;-68
2023/02/22 12:01:38;;;;;;;1999.90;999.90;;;19.00;94.10;;;;;;5040934;28;20439;-69
2023/02/22 12:04:35;;;;;;;1999.90;999.90;;;18.60;94.40;;;;;;5028941;28;20456;-69
2023/02/22 12:07:24;;;;;;;1999.90;999.90;;;18.80;93.90;;;;;;5039833;28;20440;-70
2023/02/22 12:10:04;;;;;;;1999.90;999.90;;;18.80;93.90;;;;;;5038148;28;20447;-67
2023/02/22 12:12:43;;;;;;;1999.90;999.90;;;18.70;94.70;;;;;;5041165;28;20492;-69
2023/02/22 12:15:18;;;;;;;1999.90;999.90;;;19.10;95.00;;;;;;5029966;28;20451;-68
2023/02/22 12:17:55;;;;;;;1999.90;999.90;;;19.70;93.40;;;;;;5037458;28;20480;-70
2023/02/22 12:20:25;;;;;;;1999.90;999.90;;;20.10;92.70;;;;;;5034031;28;20990;-68